Flight Track Log - Related Links

Times and Time Zones

All times are in EDT time to prevent confusion due to time zone crossing. See the CSH9152 flight status page for this flight to view local times or setup timezone preferences in your user account.

Time Position Orientation Groundspeed Altitude Reporting Facility
EDT Latitude Longitude Course Direction KTS MPH feet Rate Location/Type
Wed 02:29:00 AM 39.4515 116.8623 161° South  Level Estimated
Wed 02:30:00 AM 39.3616 116.9015 161° South  Level Estimated
Wed 02:31:00 AM 39.2718 116.9407 161° South  Level Estimated
Wed 02:32:00 AM 39.1819 116.9798 161° South  Level Estimated
Wed 02:33:00 AM 39.0920 117.0187 161° South  Level Estimated
Wed 02:34:00 AM 39.0021 117.0576 161° South  Level Estimated
Wed 02:35:00 AM 38.9122 117.0963 161° South  Level Estimated
Wed 02:36:00 AM 38.8223 117.1350 161° South  Level Estimated
Wed 02:37:00 AM 38.7323 117.1736 162° South  Level Estimated
Wed 02:38:00 AM 38.6423 117.2120 162° South  Level Estimated
Wed 02:39:00 AM 38.5524 117.2504 162° South  Level Estimated
Wed 02:40:00 AM 38.4624 117.2887 162° South  Level Estimated
Wed 02:41:00 AM 38.3724 117.3269 162° South  Level Estimated
Wed 02:42:00 AM 38.2824 117.3650 162° South  Level Estimated
Wed 02:43:00 AM 38.1924 117.4029 162° South  Level Estimated
Wed 02:44:00 AM 38.1023 117.4408 162° South  Level Estimated
Wed 02:45:00 AM 38.0123 117.4787 162° South  Level Estimated
Wed 02:46:00 AM 37.9222 117.5164 162° South  Level Estimated
Wed 02:47:00 AM 37.8322 117.5540 162° South  Level Estimated
Wed 02:48:00 AM 37.7421 117.5915 162° South  Level Estimated
Wed 02:49:00 AM 37.6520 117.6290 162° South  Level Estimated
Wed 02:50:00 AM 37.5619 117.6663 162° South  Level Estimated
Wed 02:51:00 AM 37.4718 117.7036 162° South  Level Estimated
Wed 02:52:00 AM 37.3817 117.7407 162° South  Level Estimated
Wed 02:53:00 AM 37.2915 117.7778 162° South  Level Estimated
Wed 02:54:00 AM 37.2014 117.8148 162° South  Level Estimated
Wed 02:55:00 AM 37.1112 117.8517 162° South  Level Estimated
Wed 02:56:00 AM 37.0210 117.8885 162° South  Level Estimated
Wed 02:57:00 AM 36.9309 117.9252 162° South  Level Estimated
Wed 02:58:00 AM 36.8407 117.9619 162° South  Level Estimated
Wed 02:59:00 AM 36.7505 117.9984 162° South  Level Estimated
Wed 03:00:00 AM 36.6602 118.0349 162° South  Level Estimated
Wed 03:01:00 AM 36.5700 118.0713 162° South  Level Estimated
Wed 03:02:00 AM 36.4798 118.1076 162° South  Level Estimated
Wed 03:03:00 AM 36.3895 118.1438 162° South  Level Estimated
Wed 03:04:00 AM 36.2993 118.1799 162° South  Level Estimated
Wed 03:05:00 AM 36.2090 118.2160 162° South  Level Estimated
Wed 03:06:00 AM 36.1187 118.2519 162° South  Level Estimated
Wed 03:07:00 AM 36.0284 118.2878 162° South  Level Estimated
Wed 03:08:00 AM 35.9381 118.3236 162° South  Level Estimated
Wed 03:09:00 AM 35.8478 118.3593 162° South  Level Estimated
Wed 03:10:00 AM 35.7575 118.3950 162° South  Level Estimated
Wed 03:11:00 AM 35.6671 118.4305 162° South  Level Estimated
Wed 03:12:00 AM 35.5768 118.4660 162° South  Level Estimated
Wed 03:13:00 AM 35.4864 118.5014 162° South  Level Estimated
Wed 03:14:00 AM 35.3960 118.5367 162° South  Level Estimated
Wed 03:15:00 AM 35.3057 118.5719 162° South  Level Estimated
Wed 03:16:00 AM 35.2153 118.6071 162° South  Level Estimated
Wed 03:17:00 AM 35.1249 118.6422 162° South  Level Estimated
Wed 03:18:00 AM 35.0345 118.6772 162° South  Level Estimated
Wed 03:19:00 AM 34.9440 118.7121 162° South  Level Estimated
Wed 03:20:00 AM 34.8536 118.7469 162° South  Level Estimated
Wed 03:21:00 AM 34.7632 118.7817 162° South  Level Estimated
Wed 03:22:00 AM 34.6727 118.8164 162° South  Level Estimated
Wed 03:23:00 AM 34.5823 118.8510 163° South  Level Estimated
Wed 03:24:00 AM 34.4918 118.8856 163° South  Level Estimated
Wed 03:25:00 AM 34.4013 118.9200 163° South  Level Estimated
Wed 03:26:00 AM 34.3108 118.9544 163° South  Level Estimated
Wed 03:27:00 AM 34.2203 118.9887 163° South  Level Estimated
Wed 03:28:00 AM 34.1298 119.0230 163° South  Level Estimated
Wed 03:29:00 AM 34.0393 119.0571 163° South  Level Estimated
Wed 03:30:00 AM 33.9488 119.0912 163° South  Level Estimated
Wed 03:31:00 AM 33.8583 119.1253 163° South  Level Estimated
Wed 03:32:00 AM 33.7677 119.1592 163° South  Level Estimated
Wed 03:33:00 AM 33.6772 119.1931 163° South  Level Estimated
Wed 03:34:00 AM 33.5866 119.2269 163° South  Level Estimated
Wed 03:35:00 AM 33.4960 119.2607 163° South  Level Estimated
Wed 03:36:00 AM 33.4054 119.2943 163° South  Level Estimated
Wed 03:37:00 AM 33.3149 119.3279 163° South  Level Estimated
Wed 03:38:00 AM 33.2243 119.3615 163° South  Level Estimated
Wed 03:39:00 AM 33.1337 119.3949 163° South  Level Estimated
Wed 03:40:00 AM 33.0430 119.4283 163° South  Level Estimated
Wed 03:41:00 AM 32.9524 119.4616 163° South  Level Estimated
Wed 03:42:00 AM 32.8618 119.4949 163° South  Level Estimated
Wed 03:43:00 AM 32.7711 119.5281 163° South  Level Estimated
Wed 03:44:00 AM 32.6805 119.5612 163° South  Level Estimated
Wed 03:45:00 AM 32.5898 119.5943 163° South  Level Estimated
Wed 03:46:00 AM 32.4992 119.6272 163° South  Level Estimated
Wed 03:47:00 AM 32.4085 119.6601 163° South  Level Estimated
Wed 03:48:00 AM 32.3178 119.6930 163° South  Level Estimated
Wed 03:49:00 AM 32.2271 119.7258 163° South  Level Estimated
Wed 03:50:00 AM 32.1364 119.7585 163° South  Level Estimated
Wed 03:51:00 AM 32.0457 119.7912 163° South  Level Estimated
Wed 03:52:00 AM 31.9550 119.8238 163° South  Level Estimated
Wed 03:53:00 AM 31.8642 119.8563 163° South  Level Estimated
Wed 03:54:00 AM 31.7735 119.8887 163° South  Level Estimated
Wed 03:55:00 AM 31.6828 119.9212 163° South  Level Estimated
Wed 03:56:00 AM 31.5920 119.9535 163° South  Level Estimated
Wed 03:57:00 AM 31.5012 119.9858 163° South  Level Estimated
Wed 03:58:00 AM 31.4105 120.0180 163° South  Level Estimated
Wed 03:59:00 AM 31.3197 120.0501 163° South  Level Estimated
Wed 04:00:00 AM 31.2289 120.0822 163° South  Level Estimated
Wed 04:01:00 AM 31.1381 120.1142 163° South  Level Estimated
Wed 04:02:00 AM 31.0473 120.1462 163° South  Level Estimated
Wed 04:03:00 AM 30.9565 120.1781 163° South  Level Estimated
Wed 04:04:00 AM 30.8657 120.2100 163° South  Level Estimated
Wed 04:05:00 AM 30.7749 120.2417 163° South  Level Estimated
Wed 04:06:00 AM 30.6840 120.2735 163° South  Level Estimated
Wed 04:07:00 AM 30.5932 120.3051 163° South  Level Estimated
Wed 04:08:00 AM 30.5023 120.3367 163° South  Level Estimated
Wed 04:09:00 AM 30.4115 120.3683 163° South  Level Estimated
Wed 04:10:00 AM 30.3206 120.3997 163° South  Level Estimated
Wed 04:11:00 AM 30.2297 120.4312 163° South  Level Estimated
Wed 04:12:00 AM 30.2283 120.4317 163° South  Level Estimated
Wed 04:13:00 AM 30.2283 120.4317 North  Level Estimated

Login

Don't have an account? Register now (free) for customized features, flight alerts, and more!